sensor_id;sensor_type;location;lat;lon;timestamp;P1;durP1;ratioP1;P2;durP2;ratioP2
79702;SDS011;69172;52.352;5.006;2024-02-16T00:01:10;5.22;;;1.80;;
79702;SDS011;69172;52.352;5.006;2024-02-16T00:03:35;8.10;;;2.10;;
79702;SDS011;69172;52.352;5.006;2024-02-16T00:06:01;6.68;;;2.00;;
79702;SDS011;69172;52.352;5.006;2024-02-16T00:08:26;11.20;;;2.42;;
79702;SDS011;69172;52.352;5.006;2024-02-16T00:10:51;7.05;;;2.42;;
79702;SDS011;69172;52.352;5.006;2024-02-16T00:13:17;8.70;;;2.55;;
79702;SDS011;69172;52.352;5.006;2024-02-16T00:15:42;7.82;;;2.40;;
79702;SDS011;69172;52.352;5.006;2024-02-16T00:18:08;7.05;;;2.63;;
79702;SDS011;69172;52.352;5.006;2024-02-16T00:20:34;6.85;;;2.22;;
79702;SDS011;69172;52.352;5.006;2024-02-16T00:22:59;5.10;;;1.83;;
79702;SDS011;69172;52.352;5.006;2024-02-16T00:25:27;8.43;;;2.72;;
79702;SDS011;69172;52.352;5.006;2024-02-16T00:27:52;5.43;;;2.20;;
79702;SDS011;69172;52.352;5.006;2024-02-16T00:30:21;6.65;;;1.98;;
79702;SDS011;69172;52.352;5.006;2024-02-16T00:32:47;6.57;;;1.88;;
79702;SDS011;69172;52.352;5.006;2024-02-16T00:35:14;6.32;;;2.38;;
79702;SDS011;69172;52.352;5.006;2024-02-16T00:37:42;6.05;;;2.20;;
79702;SDS011;69172;52.352;5.006;2024-02-16T00:40:08;7.03;;;2.20;;
79702;SDS011;69172;52.352;5.006;2024-02-16T00:42:35;5.53;;;1.92;;
79702;SDS011;69172;52.352;5.006;2024-02-16T00:45:01;6.93;;;2.28;;
79702;SDS011;69172;52.352;5.006;2024-02-16T00:47:28;6.55;;;2.25;;
79702;SDS011;69172;52.352;5.006;2024-02-16T00:49:54;8.15;;;2.42;;
79702;SDS011;69172;52.352;5.006;2024-02-16T00:52:19;8.93;;;2.30;;
79702;SDS011;69172;52.352;5.006;2024-02-16T00:54:44;8.25;;;2.75;;
79702;SDS011;69172;52.352;5.006;2024-02-16T00:57:11;8.23;;;2.90;;
79702;SDS011;69172;52.352;5.006;2024-02-16T00:59:39;8.85;;;2.55;;
79702;SDS011;69172;52.352;5.006;2024-02-16T01:02:07;5.50;;;2.53;;
79702;SDS011;69172;52.352;5.006;2024-02-16T01:04:34;5.88;;;2.60;;
79702;SDS011;69172;52.352;5.006;2024-02-16T01:06:59;8.70;;;2.97;;
79702;SDS011;69172;52.352;5.006;2024-02-16T01:09:25;6.75;;;2.63;;
79702;SDS011;69172;52.352;5.006;2024-02-16T01:11:52;5.80;;;2.25;;
79702;SDS011;69172;52.352;5.006;2024-02-16T01:14:18;9.13;;;2.47;;
79702;SDS011;69172;52.352;5.006;2024-02-16T01:16:44;7.22;;;2.22;;
79702;SDS011;69172;52.352;5.006;2024-02-16T01:19:10;6.47;;;2.55;;
79702;SDS011;69172;52.352;5.006;2024-02-16T01:21:35;8.52;;;2.53;;
79702;SDS011;69172;52.352;5.006;2024-02-16T01:24:01;7.95;;;2.42;;
79702;SDS011;69172;52.352;5.006;2024-02-16T01:26:27;7.32;;;2.20;;
79702;SDS011;69172;52.352;5.006;2024-02-16T01:28:53;8.30;;;2.33;;
79702;SDS011;69172;52.352;5.006;2024-02-16T01:31:18;5.45;;;2.20;;
79702;SDS011;69172;52.352;5.006;2024-02-16T01:33:44;5.07;;;2.03;;
79702;SDS011;69172;52.352;5.006;2024-02-16T01:36:09;7.82;;;2.38;;
79702;SDS011;69172;52.352;5.006;2024-02-16T01:38:36;7.95;;;2.65;;
79702;SDS011;69172;52.352;5.006;2024-02-16T01:41:02;6.93;;;2.40;;
79702;SDS011;69172;52.352;5.006;2024-02-16T01:43:27;7.20;;;2.35;;
79702;SDS011;69172;52.352;5.006;2024-02-16T01:45:53;5.63;;;2.33;;
79702;SDS011;69172;52.352;5.006;2024-02-16T01:48:19;10.35;;;2.72;;
79702;SDS011;69172;52.352;5.006;2024-02-16T01:50:44;7.97;;;2.40;;
79702;SDS011;69172;52.352;5.006;2024-02-16T01:53:14;7.30;;;2.17;;
79702;SDS011;69172;52.352;5.006;2024-02-16T01:55:44;4.85;;;2.05;;
79702;SDS011;69172;52.352;5.006;2024-02-16T01:58:12;6.25;;;2.20;;
79702;SDS011;69172;52.352;5.006;2024-02-16T02:00:40;7.05;;;2.15;;
79702;SDS011;69172;52.352;5.006;2024-02-16T02:03:08;6.85;;;2.47;;
79702;SDS011;69172;52.352;5.006;2024-02-16T02:05:33;6.65;;;2.50;;
79702;SDS011;69172;52.352;5.006;2024-02-16T02:08:08;7.38;;;2.30;;
79702;SDS011;69172;52.352;5.006;2024-02-16T02:10:34;6.63;;;2.88;;
79702;SDS011;69172;52.352;5.006;2024-02-16T02:13:00;8.60;;;2.30;;
79702;SDS011;69172;52.352;5.006;2024-02-16T02:15:27;7.53;;;2.30;;
79702;SDS011;69172;52.352;5.006;2024-02-16T02:17:53;8.50;;;2.22;;
79702;SDS011;69172;52.352;5.006;2024-02-16T02:20:18;7.97;;;2.30;;
79702;SDS011;69172;52.352;5.006;2024-02-16T02:22:43;6.78;;;2.45;;
79702;SDS011;69172;52.352;5.006;2024-02-16T02:25:09;6.95;;;2.40;;
79702;SDS011;69172;52.352;5.006;2024-02-16T02:27:36;8.75;;;3.05;;
79702;SDS011;69172;52.352;5.006;2024-02-16T02:30:04;9.63;;;2.42;;
79702;SDS011;69172;52.352;5.006;2024-02-16T02:32:31;7.03;;;2.10;;
79702;SDS011;69172;52.352;5.006;2024-02-16T02:34:57;7.65;;;2.70;;
79702;SDS011;69172;52.352;5.006;2024-02-16T02:37:23;6.18;;;2.40;;
79702;SDS011;69172;52.352;5.006;2024-02-16T02:39:48;7.97;;;2.65;;
79702;SDS011;69172;52.352;5.006;2024-02-16T02:42:14;7.15;;;2.40;;
79702;SDS011;69172;52.352;5.006;2024-02-16T02:44:39;7.93;;;2.63;;
79702;SDS011;69172;52.352;5.006;2024-02-16T02:47:05;9.27;;;2.80;;
79702;SDS011;69172;52.352;5.006;2024-02-16T02:49:31;7.00;;;2.58;;
79702;SDS011;69172;52.352;5.006;2024-02-16T02:51:58;7.60;;;2.72;;
79702;SDS011;69172;52.352;5.006;2024-02-16T02:54:23;5.35;;;2.20;;
79702;SDS011;69172;52.352;5.006;2024-02-16T02:56:49;9.05;;;3.05;;
79702;SDS011;69172;52.352;5.006;2024-02-16T02:59:14;7.28;;;2.78;;
79702;SDS011;69172;52.352;5.006;2024-02-16T03:01:40;7.07;;;2.45;;
79702;SDS011;69172;52.352;5.006;2024-02-16T03:04:05;8.70;;;2.60;;
79702;SDS011;69172;52.352;5.006;2024-02-16T03:06:31;7.05;;;2.20;;
79702;SDS011;69172;52.352;5.006;2024-02-16T03:08:58;6.50;;;2.65;;
79702;SDS011;69172;52.352;5.006;2024-02-16T03:11:24;8.05;;;2.65;;
79702;SDS011;69172;52.352;5.006;2024-02-16T03:13:50;6.10;;;2.20;;
79702;SDS011;69172;52.352;5.006;2024-02-16T03:16:17;7.03;;;2.58;;
79702;SDS011;69172;52.352;5.006;2024-02-16T03:18:42;7.68;;;2.45;;
79702;SDS011;69172;52.352;5.006;2024-02-16T03:21:08;6.32;;;2.30;;
79702;SDS011;69172;52.352;5.006;2024-02-16T03:23:33;7.18;;;2.90;;
79702;SDS011;69172;52.352;5.006;2024-02-16T03:25:59;6.50;;;2.30;;
79702;SDS011;69172;52.352;5.006;2024-02-16T03:28:24;6.13;;;2.20;;
79702;SDS011;69172;52.352;5.006;2024-02-16T03:30:50;8.13;;;2.72;;
79702;SDS011;69172;52.352;5.006;2024-02-16T03:33:16;6.75;;;2.20;;
79702;SDS011;69172;52.352;5.006;2024-02-16T03:35:41;6.20;;;2.38;;
79702;SDS011;69172;52.352;5.006;2024-02-16T03:38:07;5.72;;;2.30;;
79702;SDS011;69172;52.352;5.006;2024-02-16T03:40:33;7.10;;;2.75;;
79702;SDS011;69172;52.352;5.006;2024-02-16T03:42:58;7.07;;;2.47;;
79702;SDS011;69172;52.352;5.006;2024-02-16T03:45:24;7.38;;;2.40;;
79702;SDS011;69172;52.352;5.006;2024-02-16T03:47:50;7.55;;;2.40;;
79702;SDS011;69172;52.352;5.006;2024-02-16T03:50:17;8.43;;;2.50;;
79702;SDS011;69172;52.352;5.006;2024-02-16T03:52:43;11.35;;;3.00;;
79702;SDS011;69172;52.352;5.006;2024-02-16T03:55:08;8.15;;;2.50;;
79702;SDS011;69172;52.352;5.006;2024-02-16T03:57:35;6.78;;;2.58;;
79702;SDS011;69172;52.352;5.006;2024-02-16T04:00:00;5.28;;;2.50;;
79702;SDS011;69172;52.352;5.006;2024-02-16T04:02:25;8.93;;;2.63;;
79702;SDS011;69172;52.352;5.006;2024-02-16T04:04:51;5.38;;;2.28;;
79702;SDS011;69172;52.352;5.006;2024-02-16T04:07:16;8.65;;;2.42;;
79702;SDS011;69172;52.352;5.006;2024-02-16T04:09:43;6.15;;;2.55;;
79702;SDS011;69172;52.352;5.006;2024-02-16T04:12:09;7.35;;;2.50;;
79702;SDS011;69172;52.352;5.006;2024-02-16T04:14:35;8.48;;;2.60;;
79702;SDS011;69172;52.352;5.006;2024-02-16T04:17:00;5.88;;;2.50;;
79702;SDS011;69172;52.352;5.006;2024-02-16T04:19:26;5.60;;;2.38;;
79702;SDS011;69172;52.352;5.006;2024-02-16T04:21:51;8.15;;;2.72;;
79702;SDS011;69172;52.352;5.006;2024-02-16T04:24:17;8.75;;;2.65;;
79702;SDS011;69172;52.352;5.006;2024-02-16T04:26:43;6.68;;;2.30;;
79702;SDS011;69172;52.352;5.006;2024-02-16T04:29:08;6.88;;;2.40;;
79702;SDS011;69172;52.352;5.006;2024-02-16T04:31:34;7.75;;;2.38;;
79702;SDS011;69172;52.352;5.006;2024-02-16T04:33:59;5.60;;;2.50;;
79702;SDS011;69172;52.352;5.006;2024-02-16T04:36:25;6.75;;;2.40;;
79702;SDS011;69172;52.352;5.006;2024-02-16T04:38:50;6.63;;;2.28;;
79702;SDS011;69172;52.352;5.006;2024-02-16T04:41:16;5.95;;;2.10;;
79702;SDS011;69172;52.352;5.006;2024-02-16T04:43:41;6.25;;;2.38;;
79702;SDS011;69172;52.352;5.006;2024-02-16T04:46:07;7.93;;;2.60;;
79702;SDS011;69172;52.352;5.006;2024-02-16T04:48:32;7.80;;;2.50;;
79702;SDS011;69172;52.352;5.006;2024-02-16T04:50:59;7.35;;;2.78;;
79702;SDS011;69172;52.352;5.006;2024-02-16T04:53:24;9.57;;;2.78;;
79702;SDS011;69172;52.352;5.006;2024-02-16T04:55:50;4.88;;;2.25;;
79702;SDS011;69172;52.352;5.006;2024-02-16T04:58:16;8.15;;;2.42;;
79702;SDS011;69172;52.352;5.006;2024-02-16T05:00:41;5.28;;;2.28;;
79702;SDS011;69172;52.352;5.006;2024-02-16T05:03:08;6.93;;;2.42;;
79702;SDS011;69172;52.352;5.006;2024-02-16T05:05:33;6.25;;;2.47;;
79702;SDS011;69172;52.352;5.006;2024-02-16T05:07:59;9.52;;;2.45;;
79702;SDS011;69172;52.352;5.006;2024-02-16T05:10:25;6.55;;;2.40;;
79702;SDS011;69172;52.352;5.006;2024-02-16T05:12:50;8.90;;;3.05;;
79702;SDS011;69172;52.352;5.006;2024-02-16T05:15:16;5.97;;;2.25;;
79702;SDS011;69172;52.352;5.006;2024-02-16T05:17:42;8.60;;;2.63;;
79702;SDS011;69172;52.352;5.006;2024-02-16T05:20:11;8.82;;;2.83;;
79702;SDS011;69172;52.352;5.006;2024-02-16T05:22:41;5.88;;;2.22;;
79702;SDS011;69172;52.352;5.006;2024-02-16T05:25:14;7.80;;;2.47;;
79702;SDS011;69172;52.352;5.006;2024-02-16T05:27:40;6.85;;;2.38;;
79702;SDS011;69172;52.352;5.006;2024-02-16T05:30:06;7.10;;;2.83;;
79702;SDS011;69172;52.352;5.006;2024-02-16T05:32:37;7.88;;;2.47;;
79702;SDS011;69172;52.352;5.006;2024-02-16T05:35:03;7.20;;;2.60;;
79702;SDS011;69172;52.352;5.006;2024-02-16T05:37:36;6.22;;;2.40;;
79702;SDS011;69172;52.352;5.006;2024-02-16T05:40:08;7.43;;;2.83;;
79702;SDS011;69172;52.352;5.006;2024-02-16T05:42:44;9.20;;;2.90;;
79702;SDS011;69172;52.352;5.006;2024-02-16T05:45:12;7.53;;;2.85;;
79702;SDS011;69172;52.352;5.006;2024-02-16T05:47:39;6.70;;;2.28;;
79702;SDS011;69172;52.352;5.006;2024-02-16T05:50:04;8.10;;;2.65;;
79702;SDS011;69172;52.352;5.006;2024-02-16T05:52:31;6.82;;;2.58;;
79702;SDS011;69172;52.352;5.006;2024-02-16T05:54:57;6.47;;;2.78;;
79702;SDS011;69172;52.352;5.006;2024-02-16T05:57:22;10.43;;;2.53;;
79702;SDS011;69172;52.352;5.006;2024-02-16T05:59:49;9.10;;;2.72;;
79702;SDS011;69172;52.352;5.006;2024-02-16T06:02:15;7.28;;;2.92;;
79702;SDS011;69172;52.352;5.006;2024-02-16T06:04:40;7.85;;;2.90;;
79702;SDS011;69172;52.352;5.006;2024-02-16T06:07:06;6.75;;;2.80;;
79702;SDS011;69172;52.352;5.006;2024-02-16T06:09:31;6.97;;;2.97;;
79702;SDS011;69172;52.352;5.006;2024-02-16T06:12:03;6.72;;;2.50;;
79702;SDS011;69172;52.352;5.006;2024-02-16T06:14:33;6.63;;;2.45;;
79702;SDS011;69172;52.352;5.006;2024-02-16T06:16:58;11.50;;;3.30;;
79702;SDS011;69172;52.352;5.006;2024-02-16T06:19:25;6.50;;;2.42;;
79702;SDS011;69172;52.352;5.006;2024-02-16T06:21:53;8.70;;;3.33;;
79702;SDS011;69172;52.352;5.006;2024-02-16T06:24:20;6.22;;;2.47;;
79702;SDS011;69172;52.352;5.006;2024-02-16T06:26:48;8.15;;;3.10;;
79702;SDS011;69172;52.352;5.006;2024-02-16T06:29:13;7.72;;;2.85;;
79702;SDS011;69172;52.352;5.006;2024-02-16T06:31:39;6.50;;;2.70;;
79702;SDS011;69172;52.352;5.006;2024-02-16T06:34:04;7.82;;;2.60;;
79702;SDS011;69172;52.352;5.006;2024-02-16T06:36:29;7.80;;;2.67;;
79702;SDS011;69172;52.352;5.006;2024-02-16T06:38:55;7.00;;;2.80;;
79702;SDS011;69172;52.352;5.006;2024-02-16T06:41:20;8.25;;;3.10;;
79702;SDS011;69172;52.352;5.006;2024-02-16T06:43:46;9.63;;;2.90;;
79702;SDS011;69172;52.352;5.006;2024-02-16T06:46:12;8.88;;;3.10;;
79702;SDS011;69172;52.352;5.006;2024-02-16T06:48:39;9.32;;;3.47;;
79702;SDS011;69172;52.352;5.006;2024-02-16T06:51:04;8.40;;;2.95;;
79702;SDS011;69172;52.352;5.006;2024-02-16T06:53:29;7.80;;;3.03;;
79702;SDS011;69172;52.352;5.006;2024-02-16T06:55:55;10.18;;;3.30;;
79702;SDS011;69172;52.352;5.006;2024-02-16T06:58:20;8.93;;;3.40;;
79702;SDS011;69172;52.352;5.006;2024-02-16T07:00:45;8.07;;;3.00;;
79702;SDS011;69172;52.352;5.006;2024-02-16T07:03:12;9.13;;;2.92;;
79702;SDS011;69172;52.352;5.006;2024-02-16T07:05:37;9.30;;;3.40;;
79702;SDS011;69172;52.352;5.006;2024-02-16T07:08:03;7.78;;;3.15;;
79702;SDS011;69172;52.352;5.006;2024-02-16T07:10:32;9.23;;;3.60;;
79702;SDS011;69172;52.352;5.006;2024-02-16T07:12:58;9.00;;;2.90;;
79702;SDS011;69172;52.352;5.006;2024-02-16T07:15:23;7.03;;;3.25;;
79702;SDS011;69172;52.352;5.006;2024-02-16T07:17:50;7.95;;;3.05;;
79702;SDS011;69172;52.352;5.006;2024-02-16T07:20:16;8.70;;;3.17;;
79702;SDS011;69172;52.352;5.006;2024-02-16T07:22:41;10.07;;;3.67;;
79702;SDS011;69172;52.352;5.006;2024-02-16T07:25:07;6.55;;;2.92;;
79702;SDS011;69172;52.352;5.006;2024-02-16T07:27:33;8.68;;;3.22;;
79702;SDS011;69172;52.352;5.006;2024-02-16T07:29:59;8.60;;;3.50;;
79702;SDS011;69172;52.352;5.006;2024-02-16T07:32:24;9.68;;;3.47;;
79702;SDS011;69172;52.352;5.006;2024-02-16T07:34:50;10.82;;;4.65;;
79702;SDS011;69172;52.352;5.006;2024-02-16T07:37:17;9.63;;;3.60;;
79702;SDS011;69172;52.352;5.006;2024-02-16T07:39:42;9.70;;;3.70;;
79702;SDS011;69172;52.352;5.006;2024-02-16T07:42:08;9.50;;;3.63;;
79702;SDS011;69172;52.352;5.006;2024-02-16T07:44:38;8.70;;;3.35;;
79702;SDS011;69172;52.352;5.006;2024-02-16T07:47:04;8.82;;;3.25;;
79702;SDS011;69172;52.352;5.006;2024-02-16T07:49:30;8.45;;;3.50;;
79702;SDS011;69172;52.352;5.006;2024-02-16T07:51:55;8.07;;;3.53;;
79702;SDS011;69172;52.352;5.006;2024-02-16T07:54:21;9.55;;;3.47;;
79702;SDS011;69172;52.352;5.006;2024-02-16T07:56:46;10.40;;;3.30;;
79702;SDS011;69172;52.352;5.006;2024-02-16T07:59:12;11.27;;;4.32;;
79702;SDS011;69172;52.352;5.006;2024-02-16T08:01:37;9.05;;;3.80;;
79702;SDS011;69172;52.352;5.006;2024-02-16T08:04:03;11.35;;;3.95;;
79702;SDS011;69172;52.352;5.006;2024-02-16T08:06:29;8.85;;;3.45;;
79702;SDS011;69172;52.352;5.006;2024-02-16T08:08:55;8.77;;;3.72;;
79702;SDS011;69172;52.352;5.006;2024-02-16T08:11:20;8.13;;;3.80;;
79702;SDS011;69172;52.352;5.006;2024-02-16T08:13:45;10.43;;;3.63;;
79702;SDS011;69172;52.352;5.006;2024-02-16T08:16:11;10.95;;;3.58;;
79702;SDS011;69172;52.352;5.006;2024-02-16T08:18:38;12.55;;;3.70;;
79702;SDS011;69172;52.352;5.006;2024-02-16T08:21:03;9.48;;;3.78;;
79702;SDS011;69172;52.352;5.006;2024-02-16T08:23:28;9.82;;;3.80;;
79702;SDS011;69172;52.352;5.006;2024-02-16T08:25:55;9.70;;;3.80;;
79702;SDS011;69172;52.352;5.006;2024-02-16T08:28:21;9.20;;;3.75;;
79702;SDS011;69172;52.352;5.006;2024-02-16T08:30:46;8.70;;;3.97;;
79702;SDS011;69172;52.352;5.006;2024-02-16T08:33:11;8.65;;;3.70;;
79702;SDS011;69172;52.352;5.006;2024-02-16T08:35:39;8.45;;;3.25;;
79702;SDS011;69172;52.352;5.006;2024-02-16T08:38:05;9.48;;;3.97;;
79702;SDS011;69172;52.352;5.006;2024-02-16T08:40:30;12.05;;;3.92;;
79702;SDS011;69172;52.352;5.006;2024-02-16T08:42:55;11.07;;;4.82;;
79702;SDS011;69172;52.352;5.006;2024-02-16T08:45:21;9.90;;;3.60;;
79702;SDS011;69172;52.352;5.006;2024-02-16T08:47:46;11.48;;;4.03;;
79702;SDS011;69172;52.352;5.006;2024-02-16T08:50:12;9.98;;;3.85;;
79702;SDS011;69172;52.352;5.006;2024-02-16T08:52:37;10.40;;;4.85;;
79702;SDS011;69172;52.352;5.006;2024-02-16T08:55:03;10.30;;;4.68;;
79702;SDS011;69172;52.352;5.006;2024-02-16T08:57:28;10.00;;;3.75;;
79702;SDS011;69172;52.352;5.006;2024-02-16T08:59:54;9.35;;;4.05;;
79702;SDS011;69172;52.352;5.006;2024-02-16T09:02:22;12.75;;;4.40;;
79702;SDS011;69172;52.352;5.006;2024-02-16T09:04:47;11.23;;;4.57;;
79702;SDS011;69172;52.352;5.006;2024-02-16T09:07:13;13.07;;;4.72;;
79702;SDS011;69172;52.352;5.006;2024-02-16T09:09:38;13.20;;;4.68;;
79702;SDS011;69172;52.352;5.006;2024-02-16T09:12:04;10.68;;;4.47;;
79702;SDS011;69172;52.352;5.006;2024-02-16T09:14:30;10.10;;;4.50;;
79702;SDS011;69172;52.352;5.006;2024-02-16T09:16:57;11.05;;;3.78;;
79702;SDS011;69172;52.352;5.006;2024-02-16T09:19:29;11.27;;;4.55;;
79702;SDS011;69172;52.352;5.006;2024-02-16T09:21:54;12.40;;;5.05;;
79702;SDS011;69172;52.352;5.006;2024-02-16T09:24:21;12.82;;;5.15;;
79702;SDS011;69172;52.352;5.006;2024-02-16T09:26:46;12.73;;;5.40;;
79702;SDS011;69172;52.352;5.006;2024-02-16T09:29:13;10.10;;;4.55;;
79702;SDS011;69172;52.352;5.006;2024-02-16T09:31:39;11.45;;;4.90;;
79702;SDS011;69172;52.352;5.006;2024-02-16T09:34:05;11.85;;;6.13;;
79702;SDS011;69172;52.352;5.006;2024-02-16T09:36:31;13.98;;;5.10;;
79702;SDS011;69172;52.352;5.006;2024-02-16T09:38:57;11.48;;;5.03;;
79702;SDS011;69172;52.352;5.006;2024-02-16T09:41:24;12.82;;;5.30;;
79702;SDS011;69172;52.352;5.006;2024-02-16T09:43:49;14.50;;;6.45;;
79702;SDS011;69172;52.352;5.006;2024-02-16T09:46:18;22.25;;;8.15;;
79702;SDS011;69172;52.352;5.006;2024-02-16T09:48:45;21.27;;;8.20;;
79702;SDS011;69172;52.352;5.006;2024-02-16T09:51:14;21.98;;;8.40;;
79702;SDS011;69172;52.352;5.006;2024-02-16T09:53:49;21.40;;;9.10;;
79702;SDS011;69172;52.352;5.006;2024-02-16T09:56:21;24.70;;;9.15;;
79702;SDS011;69172;52.352;5.006;2024-02-16T09:58:49;25.50;;;9.55;;
79702;SDS011;69172;52.352;5.006;2024-02-16T10:01:20;21.13;;;8.00;;
79702;SDS011;69172;52.352;5.006;2024-02-16T10:03:46;28.08;;;8.55;;
79702;SDS011;69172;52.352;5.006;2024-02-16T10:06:12;23.92;;;10.05;;
79702;SDS011;69172;52.352;5.006;2024-02-16T10:08:47;28.30;;;9.32;;
79702;SDS011;69172;52.352;5.006;2024-02-16T10:11:26;29.98;;;9.80;;
79702;SDS011;69172;52.352;5.006;2024-02-16T10:13:59;25.02;;;9.45;;
79702;SDS011;69172;52.352;5.006;2024-02-16T10:16:26;22.70;;;8.75;;
79702;SDS011;69172;52.352;5.006;2024-02-16T10:19:17;24.52;;;9.48;;
79702;SDS011;69172;52.352;5.006;2024-02-16T10:21:42;24.63;;;9.77;;
79702;SDS011;69172;52.352;5.006;2024-02-16T10:24:09;25.58;;;9.25;;
79702;SDS011;69172;52.352;5.006;2024-02-16T10:26:37;21.75;;;8.70;;
79702;SDS011;69172;52.352;5.006;2024-02-16T10:29:07;26.05;;;9.60;;
79702;SDS011;69172;52.352;5.006;2024-02-16T10:31:34;20.45;;;8.50;;
79702;SDS011;69172;52.352;5.006;2024-02-16T10:34:00;19.42;;;7.70;;
79702;SDS011;69172;52.352;5.006;2024-02-16T10:36:31;23.60;;;8.65;;
79702;SDS011;69172;52.352;5.006;2024-02-16T10:38:59;20.05;;;7.40;;
79702;SDS011;69172;52.352;5.006;2024-02-16T10:41:27;19.10;;;7.30;;
79702;SDS011;69172;52.352;5.006;2024-02-16T10:43:56;16.55;;;6.70;;
79702;SDS011;69172;52.352;5.006;2024-02-16T10:46:22;16.15;;;6.57;;
79702;SDS011;69172;52.352;5.006;2024-02-16T10:48:49;12.82;;;5.70;;
79702;SDS011;69172;52.352;5.006;2024-02-16T10:51:17;13.48;;;6.47;;
79702;SDS011;69172;52.352;5.006;2024-02-16T10:53:46;16.38;;;6.07;;
79702;SDS011;69172;52.352;5.006;2024-02-16T10:56:13;15.88;;;4.97;;
79702;SDS011;69172;52.352;5.006;2024-02-16T10:58:38;13.32;;;5.57;;
79702;SDS011;69172;52.352;5.006;2024-02-16T11:01:08;12.10;;;5.28;;
79702;SDS011;69172;52.352;5.006;2024-02-16T11:03:37;12.95;;;5.07;;
79702;SDS011;69172;52.352;5.006;2024-02-16T11:06:25;11.52;;;4.22;;
79702;SDS011;69172;52.352;5.006;2024-02-16T11:08:50;14.07;;;5.07;;
79702;SDS011;69172;52.352;5.006;2024-02-16T11:11:22;12.05;;;4.63;;
79702;SDS011;69172;52.352;5.006;2024-02-16T11:13:49;11.43;;;3.95;;
79702;SDS011;69172;52.352;5.006;2024-02-16T11:16:19;12.70;;;4.53;;
79702;SDS011;69172;52.352;5.006;2024-02-16T11:18:47;11.88;;;4.40;;
79702;SDS011;69172;52.352;5.006;2024-02-16T11:21:17;10.30;;;4.25;;
79702;SDS011;69172;52.352;5.006;2024-02-16T11:23:42;11.80;;;4.60;;
79702;SDS011;69172;52.352;5.006;2024-02-16T11:26:10;11.15;;;4.70;;
79702;SDS011;69172;52.352;5.006;2024-02-16T11:28:36;12.75;;;4.97;;
79702;SDS011;69172;52.352;5.006;2024-02-16T11:31:03;10.05;;;4.65;;
79702;SDS011;69172;52.352;5.006;2024-02-16T11:33:29;12.75;;;4.40;;
79702;SDS011;69172;52.352;5.006;2024-02-16T11:35:58;13.68;;;5.20;;
79702;SDS011;69172;52.352;5.006;2024-02-16T11:38:26;11.63;;;4.95;;
79702;SDS011;69172;52.352;5.006;2024-02-16T11:40:55;9.45;;;4.57;;
79702;SDS011;69172;52.352;5.006;2024-02-16T11:43:33;12.38;;;4.70;;
79702;SDS011;69172;52.352;5.006;2024-02-16T11:45:58;11.10;;;4.88;;
79702;SDS011;69172;52.352;5.006;2024-02-16T11:48:25;12.95;;;4.47;;
79702;SDS011;69172;52.352;5.006;2024-02-16T11:51:02;11.05;;;4.90;;
79702;SDS011;69172;52.352;5.006;2024-02-16T11:53:28;11.27;;;4.72;;
79702;SDS011;69172;52.352;5.006;2024-02-16T11:55:55;10.57;;;4.50;;
79702;SDS011;69172;52.352;5.006;2024-02-16T11:58:20;11.52;;;4.18;;
79702;SDS011;69172;52.352;5.006;2024-02-16T12:00:47;10.13;;;4.00;;
79702;SDS011;69172;52.352;5.006;2024-02-16T12:03:20;8.25;;;3.40;;
79702;SDS011;69172;52.352;5.006;2024-02-16T12:05:50;8.23;;;3.45;;
79702;SDS011;69172;52.352;5.006;2024-02-16T12:08:16;8.98;;;3.58;;
79702;SDS011;69172;52.352;5.006;2024-02-16T12:10:42;10.90;;;3.83;;
79702;SDS011;69172;52.352;5.006;2024-02-16T12:13:08;9.68;;;3.08;;
79702;SDS011;69172;52.352;5.006;2024-02-16T12:15:34;8.57;;;3.15;;
79702;SDS011;69172;52.352;5.006;2024-02-16T12:18:02;7.30;;;3.20;;
79702;SDS011;69172;52.352;5.006;2024-02-16T12:20:29;7.43;;;2.92;;
79702;SDS011;69172;52.352;5.006;2024-02-16T12:22:56;6.57;;;2.95;;
79702;SDS011;69172;52.352;5.006;2024-02-16T12:25:21;8.40;;;2.90;;
79702;SDS011;69172;52.352;5.006;2024-02-16T12:27:55;9.98;;;3.45;;
79702;SDS011;69172;52.352;5.006;2024-02-16T12:30:20;7.80;;;3.15;;
79702;SDS011;69172;52.352;5.006;2024-02-16T12:32:46;7.70;;;2.88;;
79702;SDS011;69172;52.352;5.006;2024-02-16T12:35:11;7.28;;;3.00;;
79702;SDS011;69172;52.352;5.006;2024-02-16T12:37:36;6.55;;;2.50;;
79702;SDS011;69172;52.352;5.006;2024-02-16T12:40:02;6.78;;;2.75;;
79702;SDS011;69172;52.352;5.006;2024-02-16T12:42:28;8.35;;;3.05;;
79702;SDS011;69172;52.352;5.006;2024-02-16T12:44:54;8.60;;;2.70;;
79702;SDS011;69172;52.352;5.006;2024-02-16T12:47:19;8.95;;;2.75;;
79702;SDS011;69172;52.352;5.006;2024-02-16T12:49:45;8.10;;;2.97;;
79702;SDS011;69172;52.352;5.006;2024-02-16T12:52:10;7.55;;;2.47;;
79702;SDS011;69172;52.352;5.006;2024-02-16T12:54:45;6.57;;;2.17;;
79702;SDS011;69172;52.352;5.006;2024-02-16T12:57:12;6.80;;;1.88;;
79702;SDS011;69172;52.352;5.006;2024-02-16T12:59:37;8.48;;;2.17;;
79702;SDS011;69172;52.352;5.006;2024-02-16T13:02:03;5.85;;;2.35;;
79702;SDS011;69172;52.352;5.006;2024-02-16T13:04:30;8.55;;;3.10;;
79702;SDS011;69172;52.352;5.006;2024-02-16T13:07:09;8.73;;;3.08;;
79702;SDS011;69172;52.352;5.006;2024-02-16T13:09:35;10.00;;;3.20;;
79702;SDS011;69172;52.352;5.006;2024-02-16T13:12:01;8.45;;;3.17;;
79702;SDS011;69172;52.352;5.006;2024-02-16T13:14:27;8.98;;;3.70;;
79702;SDS011;69172;52.352;5.006;2024-02-16T13:16:54;8.90;;;3.45;;
79702;SDS011;69172;52.352;5.006;2024-02-16T13:19:26;12.32;;;4.68;;
79702;SDS011;69172;52.352;5.006;2024-02-16T13:21:51;11.00;;;4.20;;
79702;SDS011;69172;52.352;5.006;2024-02-16T13:24:17;13.70;;;4.20;;
79702;SDS011;69172;52.352;5.006;2024-02-16T13:26:43;13.88;;;4.60;;
79702;SDS011;69172;52.352;5.006;2024-02-16T13:29:08;14.45;;;4.82;;
79702;SDS011;69172;52.352;5.006;2024-02-16T13:31:34;13.38;;;4.10;;
79702;SDS011;69172;52.352;5.006;2024-02-16T13:34:00;12.52;;;4.55;;
79702;SDS011;69172;52.352;5.006;2024-02-16T13:36:25;11.65;;;3.83;;
79702;SDS011;69172;52.352;5.006;2024-02-16T13:38:51;9.20;;;4.28;;
79702;SDS011;69172;52.352;5.006;2024-02-16T13:41:17;9.32;;;3.78;;
79702;SDS011;69172;52.352;5.006;2024-02-16T13:43:44;9.80;;;3.88;;
79702;SDS011;69172;52.352;5.006;2024-02-16T13:46:11;11.38;;;4.25;;
79702;SDS011;69172;52.352;5.006;2024-02-16T13:48:36;10.85;;;3.63;;
79702;SDS011;69172;52.352;5.006;2024-02-16T13:51:02;9.48;;;3.35;;
79702;SDS011;69172;52.352;5.006;2024-02-16T13:53:30;9.43;;;3.65;;
79702;SDS011;69172;52.352;5.006;2024-02-16T13:55:56;9.27;;;3.72;;
79702;SDS011;69172;52.352;5.006;2024-02-16T13:58:25;13.55;;;3.47;;
79702;SDS011;69172;52.352;5.006;2024-02-16T14:00:51;9.45;;;3.65;;
79702;SDS011;69172;52.352;5.006;2024-02-16T14:03:17;10.90;;;4.13;;
79702;SDS011;69172;52.352;5.006;2024-02-16T14:05:44;11.35;;;4.28;;
79702;SDS011;69172;52.352;5.006;2024-02-16T14:08:12;10.23;;;4.10;;
79702;SDS011;69172;52.352;5.006;2024-02-16T14:10:39;15.38;;;5.10;;
79702;SDS011;69172;52.352;5.006;2024-02-16T14:13:04;13.38;;;4.68;;
79702;SDS011;69172;52.352;5.006;2024-02-16T14:15:31;12.25;;;4.85;;
79702;SDS011;69172;52.352;5.006;2024-02-16T14:17:56;13.32;;;6.28;;
79702;SDS011;69172;52.352;5.006;2024-02-16T14:20:22;12.90;;;5.30;;
79702;SDS011;69172;52.352;5.006;2024-02-16T14:22:48;13.50;;;5.65;;
79702;SDS011;69172;52.352;5.006;2024-02-16T14:25:14;13.32;;;6.53;;
79702;SDS011;69172;52.352;5.006;2024-02-16T14:27:40;15.48;;;6.68;;
79702;SDS011;69172;52.352;5.006;2024-02-16T14:30:10;15.40;;;6.47;;
79702;SDS011;69172;52.352;5.006;2024-02-16T14:32:37;12.20;;;5.95;;
79702;SDS011;69172;52.352;5.006;2024-02-16T14:35:03;13.70;;;6.10;;
79702;SDS011;69172;52.352;5.006;2024-02-16T14:37:30;14.27;;;5.57;;
79702;SDS011;69172;52.352;5.006;2024-02-16T14:39:55;17.58;;;6.25;;